»·PEaware :: N326MC KBFL-KSLC

N326MC :: KBFL-KSLC

FLIGHT INFORMATION

Flight Status: Arrived
Operator: Privately registered:
United States
More flights under this callsign
Pilot: Anonymous 5456 (5456)
Aircraft: BOEING 737-200
(B732)
More flights by this aircraft type
Origin: KBFL Meadows
United States
Destination: KSLC Salt Lake City Intl
United States
More flights between these airports :: More routes between these airports
Route: +MEADO3 EHF J65 CZQ OAL J80 MLF JAMMN5
File this flight plan on PilotEdge
Remarks:
Altitude:
(Current/Filed)
31,000ft
Speed:
(Current/Filed)
480kts
Departed: 01-Feb-18 09:51 AM
Arrived: 01-Feb-18 11:20 AM
Distance/Time
Traveled:
464nm/1:29
Distance/Time
To Go:
Arrived

Flight Plot

Page will automatically refresh every two minutes.

Flight plan parsing failed; only flown route is shown


Map Options




Map Legend


Flown Route
Filed Route
Departure Airport
Arrival Airport
Navaid (VOR, NDB)
Fix

Horizontal Profiles

Position Reports

Time Latitude Longitude Heading Altitude Ground
Speed
01-Feb-18 09:35 35.426090 -119.042757 179 515ft 0kts
01-Feb-18 09:36 35.426090 -119.042757 179 515ft 0kts
01-Feb-18 09:37 35.426090 -119.042757 179 515ft 0kts
01-Feb-18 09:38 35.426090 -119.042757 179 515ft 0kts
01-Feb-18 09:39 35.426090 -119.042757 179 515ft 0kts
01-Feb-18 09:40 35.426090 -119.042757 179 515ft 0kts
01-Feb-18 09:41 35.426090 -119.042757 179 515ft 0kts
01-Feb-18 09:42 35.426090 -119.042757 179 515ft 0kts
01-Feb-18 09:43 35.426090 -119.042757 179 515ft 0kts
01-Feb-18 09:44 35.426090 -119.042757 179 515ft 0kts
01-Feb-18 09:45 35.426090 -119.042757 179 515ft 0kts
01-Feb-18 09:46 35.426090 -119.042757 179 515ft 0kts
01-Feb-18 09:47 35.426090 -119.042757 179 515ft 0kts
01-Feb-18 09:48 35.426090 -119.042757 179 515ft 0kts
01-Feb-18 09:49 35.426090 -119.042757 179 515ft 0kts
01-Feb-18 09:50 35.426090 -119.042757 179 515ft 0kts
01-Feb-18 09:51 35.426090 -119.042757 179 515ft 0kts
01-Feb-18 09:52 35.426090 -119.042757 179 515ft 0kts
01-Feb-18 09:53 35.426090 -119.042757 179 515ft 0kts
01-Feb-18 09:54 35.426090 -119.042757 179 515ft 0kts
01-Feb-18 09:55 35.425598 -119.044219 262 515ft 3kts
01-Feb-18 09:56 35.425541 -119.044733 262 515ft 6kts
01-Feb-18 09:57 35.430777 -119.052481 315 515ft 117kts
01-Feb-18 09:58 35.463572 -119.095159 313 3004ft 201kts
01-Feb-18 09:59 35.504093 -119.149643 313 6468ft 227kts
01-Feb-18 10:00 35.544936 -119.205677 328 9991ft 219kts
01-Feb-18 10:01 35.605838 -119.199158 13 12355ft 249kts
01-Feb-18 10:02 35.674376 -119.200850 340 14999ft 263kts
01-Feb-18 10:03 35.741939 -119.232913 333 17666ft 264kts
01-Feb-18 10:04 35.806430 -119.272760 333 20106ft 261kts
01-Feb-18 10:05 35.870787 -119.309908 339 22242ft 257kts
01-Feb-18 10:06 35.944295 -119.344741 337 22541ft 318kts
01-Feb-18 10:07 36.021759 -119.382799 337 22674ft 366kts
01-Feb-18 10:08 36.115190 -119.429085 337 24068ft 373kts
01-Feb-18 10:09 36.207062 -119.474769 337 25240ft 380kts
01-Feb-18 10:10 36.302689 -119.522441 336 26348ft 387kts
01-Feb-18 10:11 36.401471 -119.571854 336 27344ft 393kts
01-Feb-18 10:12 36.501732 -119.622130 336 28227ft 398kts
01-Feb-18 10:13 36.598850 -119.670966 335 28971ft 404kts
01-Feb-18 10:14 36.702151 -119.723052 335 29679ft 408kts
01-Feb-18 10:15 36.807301 -119.776227 335 30324ft 413kts
01-Feb-18 10:16 36.915680 -119.748861 42 30797ft 441kts
01-Feb-18 10:17 36.989724 -119.627248 50 31188ft 451kts
01-Feb-18 10:18 37.061169 -119.500273 50 31194ft 464kts
01-Feb-18 10:19 37.128650 -119.379366 49 31201ft 472kts
01-Feb-18 10:20 37.201900 -119.247660 50 31266ft 478kts
01-Feb-18 10:21 37.277652 -119.110819 50 31344ft 482kts
01-Feb-18 10:22 37.353988 -118.972350 50 31349ft 488kts
01-Feb-18 10:23 37.430989 -118.832096 50 31350ft 492kts
01-Feb-18 10:24 37.508532 -118.690254 50 31325ft 497kts
01-Feb-18 10:25 37.586258 -118.547466 50 31334ft 499kts
01-Feb-18 10:26 37.664480 -118.403141 50 31290ft 503kts
01-Feb-18 10:27 37.739953 -118.263270 50 31232ft 499kts
01-Feb-18 10:28 37.817233 -118.119444 50 31232ft 492kts
01-Feb-18 10:29 37.893112 -117.977621 50 31234ft 487kts
01-Feb-18 10:30 37.968455 -117.836189 50 31248ft 483kts
01-Feb-18 10:31 38.010447 -117.673967 78 31281ft 496kts
01-Feb-18 10:32 38.026609 -117.500992 80 31293ft 495kts
01-Feb-18 10:33 38.040991 -117.331846 80 31290ft 494kts
01-Feb-18 10:34 38.054956 -117.164045 80 31287ft 493kts
01-Feb-18 10:35 38.069072 -116.991210 80 31288ft 492kts
01-Feb-18 10:36 38.082900 -116.818851 80 31290ft 492kts
01-Feb-18 10:37 38.096499 -116.646218 80 31292ft 492kts
01-Feb-18 10:38 38.109346 -116.479965 80 31300ft 493kts
01-Feb-18 10:39 38.122121 -116.311608 81 31292ft 495kts
01-Feb-18 10:40 38.135053 -116.137638 81 31294ft 500kts
01-Feb-18 10:41 38.147845 -115.962106 81 31295ft 505kts
01-Feb-18 10:42 38.160473 -115.785027 81 31301ft 508kts
01-Feb-18 10:43 38.172927 -115.606584 81 31311ft 511kts
01-Feb-18 10:44 38.184970 -115.430184 81 31318ft 514kts
01-Feb-18 10:45 38.196242 -115.261407 82 31310ft 516kts
01-Feb-18 10:46 38.207738 -115.085314 82 31312ft 517kts
01-Feb-18 10:47 38.219106 -114.907100 82 31313ft 517kts
01-Feb-18 10:48 38.230244 -114.728155 82 31315ft 518kts
01-Feb-18 10:49 38.241271 -114.546466 82 31316ft 519kts
01-Feb-18 10:50 38.252685 -114.366649 80 31319ft 519kts
01-Feb-18 10:51 38.267448 -114.192114 80 31305ft 519kts
01-Feb-18 10:52 38.323941 -114.030831 51 31276ft 501kts
01-Feb-18 10:53 38.405249 -113.889075 41 31276ft 493kts
01-Feb-18 10:54 38.495350 -113.757306 44 31267ft 496kts
01-Feb-18 10:55 38.583710 -113.622845 44 31268ft 496kts
01-Feb-18 10:56 38.671912 -113.487813 44 31269ft 496kts
01-Feb-18 10:57 38.760038 -113.352315 44 31269ft 497kts
01-Feb-18 10:58 38.845208 -113.220813 44 31260ft 496kts
01-Feb-18 10:59 38.932893 -113.084872 44 31260ft 496kts
01-Feb-18 11:00 39.020413 -112.948569 44 31269ft 497kts
01-Feb-18 11:01 39.102967 -112.819419 44 30496ft 486kts
01-Feb-18 11:02 39.147855 -112.748994 44 29511ft 468kts
01-Feb-18 11:03 39.227718 -112.623364 44 28022ft 440kts
01-Feb-18 11:04 39.308075 -112.514363 18 26535ft 398kts
01-Feb-18 11:05 39.408168 -112.471787 8 25171ft 372kts
01-Feb-18 11:06 39.506229 -112.438292 7 23815ft 380kts
01-Feb-18 11:07 39.613228 -112.402591 8 22819ft 416kts
01-Feb-18 11:08 39.726387 -112.364775 8 21875ft 436kts
01-Feb-18 11:09 39.835454 -112.328220 9 20203ft 438kts
01-Feb-18 11:10 39.944682 -112.291414 9 18232ft 396kts
01-Feb-18 11:11 40.044584 -112.257654 9 17001ft 355kts
01-Feb-18 11:12 40.128391 -112.196369 31 15778ft 382kts
01-Feb-18 11:13 40.211126 -112.118099 31 14053ft 359kts
01-Feb-18 11:14 40.284446 -112.048537 31 12975ft 280kts
01-Feb-18 11:15 40.342128 -111.991977 31 11989ft 262kts
01-Feb-18 11:16 40.395106 -111.939474 48 11395ft 235kts
01-Feb-18 11:17 40.444164 -111.893706 3 10172ft 212kts
01-Feb-18 11:18 40.491861 -111.914611 332 9882ft 163kts
01-Feb-18 11:19 40.533779 -111.935110 351 9090ft 175kts
01-Feb-18 11:20 40.579648 -111.940686 354 8147ft 169kts
01-Feb-18 11:21 40.624382 -111.945799 354 7257ft 155kts
01-Feb-18 11:22 40.661907 -111.950078 353 6450ft 139kts
01-Feb-18 11:23 40.698939 -111.954327 353 5725ft 135kts
01-Feb-18 11:24 40.732656 -111.958203 353 5067ft 131kts
01-Feb-18 11:25 40.765483 -111.961966 355 4436ft 128kts
01-Feb-18 11:26 40.787610 -111.961459 24 4236ft 31kts
01-Feb-18 11:27 40.786806 -111.960008 179 4236ft 16kts

Navigation Log

Ident Type
Flight plan parsing failed, navigation log unavailable